sensor_id;sensor_type;location;lat;lon;timestamp;temperature;humidity
37844;DHT22;63793;57.632;18.292;2023-02-01T00:01:14;1.90;99.90
37844;DHT22;63793;57.632;18.292;2023-02-01T00:03:41;1.90;99.90
37844;DHT22;63793;57.632;18.292;2023-02-01T00:06:09;1.90;99.90
37844;DHT22;63793;57.632;18.292;2023-02-01T00:08:36;1.90;99.90
37844;DHT22;63793;57.632;18.292;2023-02-01T00:11:06;1.90;99.90
37844;DHT22;63793;57.632;18.292;2023-02-01T00:13:35;1.90;99.90
37844;DHT22;63793;57.632;18.292;2023-02-01T00:16:06;1.90;99.90
37844;DHT22;63793;57.632;18.292;2023-02-01T00:18:34;1.90;99.90
37844;DHT22;63793;57.632;18.292;2023-02-01T00:21:01;1.90;99.90
37844;DHT22;63793;57.632;18.292;2023-02-01T00:23:32;1.90;99.90
37844;DHT22;63793;57.632;18.292;2023-02-01T00:26:02;1.90;99.90
37844;DHT22;63793;57.632;18.292;2023-02-01T00:28:29;1.90;99.90
37844;DHT22;63793;57.632;18.292;2023-02-01T00:31:01;1.90;99.90
37844;DHT22;63793;57.632;18.292;2023-02-01T00:33:29;1.90;99.90
37844;DHT22;63793;57.632;18.292;2023-02-01T00:35:58;1.90;99.90
37844;DHT22;63793;57.632;18.292;2023-02-01T00:38:26;2.00;99.90
37844;DHT22;63793;57.632;18.292;2023-02-01T00:40:54;1.90;99.90
37844;DHT22;63793;57.632;18.292;2023-02-01T00:43:27;1.90;99.90
37844;DHT22;63793;57.632;18.292;2023-02-01T00:45:54;1.90;99.90
37844;DHT22;63793;57.632;18.292;2023-02-01T00:48:21;1.90;99.90
37844;DHT22;63793;57.632;18.292;2023-02-01T00:50:48;1.90;99.90
37844;DHT22;63793;57.632;18.292;2023-02-01T00:53:16;1.90;99.90
37844;DHT22;63793;57.632;18.292;2023-02-01T00:55:47;1.80;99.90
37844;DHT22;63793;57.632;18.292;2023-02-01T00:58:14;1.80;99.90
37844;DHT22;63793;57.632;18.292;2023-02-01T01:00:41;1.80;99.90
37844;DHT22;63793;57.632;18.292;2023-02-01T01:03:08;1.80;99.90
37844;DHT22;63793;57.632;18.292;2023-02-01T01:05:48;1.80;99.90
37844;DHT22;63793;57.632;18.292;2023-02-01T01:08:16;1.80;99.90
37844;DHT22;63793;57.632;18.292;2023-02-01T01:10:43;1.80;99.90
37844;DHT22;63793;57.632;18.292;2023-02-01T01:13:10;1.80;99.90
37844;DHT22;63793;57.632;18.292;2023-02-01T01:15:38;1.80;99.90
37844;DHT22;63793;57.632;18.292;2023-02-01T01:18:06;1.80;99.90
37844;DHT22;63793;57.632;18.292;2023-02-01T01:20:36;1.80;99.90
37844;DHT22;63793;57.632;18.292;2023-02-01T01:23:03;1.90;99.90
37844;DHT22;63793;57.632;18.292;2023-02-01T01:25:31;1.90;99.90
37844;DHT22;63793;57.632;18.292;2023-02-01T01:27:58;1.90;99.90
37844;DHT22;63793;57.632;18.292;2023-02-01T01:30:25;1.90;99.90
37844;DHT22;63793;57.632;18.292;2023-02-01T01:32:52;1.90;99.90
37844;DHT22;63793;57.632;18.292;2023-02-01T01:35:19;1.90;99.90
37844;DHT22;63793;57.632;18.292;2023-02-01T01:37:46;1.90;99.90
37844;DHT22;63793;57.632;18.292;2023-02-01T01:40:13;1.90;99.90
37844;DHT22;63793;57.632;18.292;2023-02-01T01:42:41;1.90;99.90
37844;DHT22;63793;57.632;18.292;2023-02-01T01:47:55;2.00;99.90
37844;DHT22;63793;57.632;18.292;2023-02-01T01:50:37;2.00;99.90
37844;DHT22;63793;57.632;18.292;2023-02-01T01:53:08;2.00;99.90
37844;DHT22;63793;57.632;18.292;2023-02-01T01:55:40;2.00;99.90
37844;DHT22;63793;57.632;18.292;2023-02-01T01:58:13;2.00;99.90
37844;DHT22;63793;57.632;18.292;2023-02-01T02:00:42;2.10;99.90
37844;DHT22;63793;57.632;18.292;2023-02-01T02:05:43;2.10;99.90
37844;DHT22;63793;57.632;18.292;2023-02-01T02:08:10;2.20;99.90
37844;DHT22;63793;57.632;18.292;2023-02-01T02:10:38;2.20;99.90
37844;DHT22;63793;57.632;18.292;2023-02-01T02:13:24;2.20;99.90
37844;DHT22;63793;57.632;18.292;2023-02-01T02:22:24;2.20;99.90
37844;DHT22;63793;57.632;18.292;2023-02-01T02:33:35;2.20;99.90
37844;DHT22;63793;57.632;18.292;2023-02-01T02:38:56;2.20;99.90
37844;DHT22;63793;57.632;18.292;2023-02-01T02:41:27;2.20;99.90
37844;DHT22;63793;57.632;18.292;2023-02-01T02:48:10;2.20;99.90
37844;DHT22;63793;57.632;18.292;2023-02-01T02:50:55;2.20;99.90
37844;DHT22;63793;57.632;18.292;2023-02-01T02:56:37;2.20;99.90
37844;DHT22;63793;57.632;18.292;2023-02-01T02:59:25;2.30;99.90
37844;DHT22;63793;57.632;18.292;2023-02-01T03:02:13;2.40;99.90
37844;DHT22;63793;57.632;18.292;2023-02-01T03:04:59;2.50;99.90
37844;DHT22;63793;57.632;18.292;2023-02-01T03:10:30;2.50;99.90
37844;DHT22;63793;57.632;18.292;2023-02-01T03:13:06;2.60;99.90
37844;DHT22;63793;57.632;18.292;2023-02-01T03:15:55;2.60;99.90
37844;DHT22;63793;57.632;18.292;2023-02-01T03:24:18;2.60;99.90
37844;DHT22;63793;57.632;18.292;2023-02-01T03:26:54;2.60;99.90
37844;DHT22;63793;57.632;18.292;2023-02-01T03:29:27;2.60;99.90
37844;DHT22;63793;57.632;18.292;2023-02-01T03:31:56;2.60;99.90
37844;DHT22;63793;57.632;18.292;2023-02-01T03:34:23;2.60;99.90
37844;DHT22;63793;57.632;18.292;2023-02-01T03:37:02;2.70;99.90
37844;DHT22;63793;57.632;18.292;2023-02-01T03:39:47;2.70;99.90
37844;DHT22;63793;57.632;18.292;2023-02-01T03:42:27;2.70;99.90
37844;DHT22;63793;57.632;18.292;2023-02-01T03:45:18;2.70;99.90
37844;DHT22;63793;57.632;18.292;2023-02-01T03:47:50;2.70;99.90
37844;DHT22;63793;57.632;18.292;2023-02-01T03:50:20;2.70;99.90
37844;DHT22;63793;57.632;18.292;2023-02-01T03:52:58;2.70;99.90
37844;DHT22;63793;57.632;18.292;2023-02-01T03:55:26;2.70;99.90
37844;DHT22;63793;57.632;18.292;2023-02-01T03:58:12;2.70;99.90
37844;DHT22;63793;57.632;18.292;2023-02-01T04:00:39;2.70;99.90
37844;DHT22;63793;57.632;18.292;2023-02-01T04:03:07;2.70;99.90
37844;DHT22;63793;57.632;18.292;2023-02-01T04:05:34;2.70;99.90
37844;DHT22;63793;57.632;18.292;2023-02-01T04:08:04;2.80;99.90
37844;DHT22;63793;57.632;18.292;2023-02-01T04:10:31;2.80;99.90
37844;DHT22;63793;57.632;18.292;2023-02-01T04:12:58;2.80;99.90
37844;DHT22;63793;57.632;18.292;2023-02-01T04:15:25;2.80;99.90
37844;DHT22;63793;57.632;18.292;2023-02-01T04:17:52;2.70;99.90
37844;DHT22;63793;57.632;18.292;2023-02-01T04:20:19;2.70;99.90
37844;DHT22;63793;57.632;18.292;2023-02-01T04:22:46;2.70;99.90
37844;DHT22;63793;57.632;18.292;2023-02-01T04:25:13;2.60;99.90
37844;DHT22;63793;57.632;18.292;2023-02-01T04:27:40;2.60;99.90
37844;DHT22;63793;57.632;18.292;2023-02-01T04:30:07;2.70;99.90
37844;DHT22;63793;57.632;18.292;2023-02-01T04:32:37;2.70;99.90
37844;DHT22;63793;57.632;18.292;2023-02-01T04:35:05;2.70;99.90
37844;DHT22;63793;57.632;18.292;2023-02-01T04:37:32;2.70;99.90
37844;DHT22;63793;57.632;18.292;2023-02-01T04:39:59;2.70;99.90
37844;DHT22;63793;57.632;18.292;2023-02-01T04:42:26;2.70;99.90
37844;DHT22;63793;57.632;18.292;2023-02-01T04:44:53;2.70;99.90
37844;DHT22;63793;57.632;18.292;2023-02-01T04:47:20;2.70;99.90
37844;DHT22;63793;57.632;18.292;2023-02-01T04:49:47;2.70;99.90
37844;DHT22;63793;57.632;18.292;2023-02-01T04:52:14;2.70;99.90
37844;DHT22;63793;57.632;18.292;2023-02-01T04:54:40;2.70;99.90
37844;DHT22;63793;57.632;18.292;2023-02-01T04:57:07;2.70;99.90
37844;DHT22;63793;57.632;18.292;2023-02-01T04:59:34;2.70;99.90
37844;DHT22;63793;57.632;18.292;2023-02-01T05:02:01;2.70;99.90
37844;DHT22;63793;57.632;18.292;2023-02-01T05:04:28;2.70;99.90
37844;DHT22;63793;57.632;18.292;2023-02-01T05:06:55;2.70;99.90
37844;DHT22;63793;57.632;18.292;2023-02-01T05:09:22;2.70;99.90
37844;DHT22;63793;57.632;18.292;2023-02-01T05:11:49;2.60;99.90
37844;DHT22;63793;57.632;18.292;2023-02-01T05:14:35;2.60;99.90
37844;DHT22;63793;57.632;18.292;2023-02-01T05:17:01;2.60;99.90
37844;DHT22;63793;57.632;18.292;2023-02-01T05:19:28;2.60;99.90
37844;DHT22;63793;57.632;18.292;2023-02-01T05:21:55;2.60;99.90
37844;DHT22;63793;57.632;18.292;2023-02-01T05:24:22;2.60;99.90
37844;DHT22;63793;57.632;18.292;2023-02-01T05:26:49;2.50;99.90
37844;DHT22;63793;57.632;18.292;2023-02-01T05:29:17;2.50;99.90
37844;DHT22;63793;57.632;18.292;2023-02-01T05:31:45;2.50;99.90
37844;DHT22;63793;57.632;18.292;2023-02-01T05:34:13;2.50;99.90
37844;DHT22;63793;57.632;18.292;2023-02-01T05:36:40;2.50;99.90
37844;DHT22;63793;57.632;18.292;2023-02-01T05:39:07;2.50;99.90
37844;DHT22;63793;57.632;18.292;2023-02-01T05:41:34;2.50;99.90
37844;DHT22;63793;57.632;18.292;2023-02-01T05:44:01;2.50;99.90
37844;DHT22;63793;57.632;18.292;2023-02-01T05:46:28;2.40;99.90
37844;DHT22;63793;57.632;18.292;2023-02-01T05:48:55;2.40;99.90
37844;DHT22;63793;57.632;18.292;2023-02-01T05:51:22;2.40;99.90
37844;DHT22;63793;57.632;18.292;2023-02-01T05:53:48;2.40;99.90
37844;DHT22;63793;57.632;18.292;2023-02-01T05:56:15;2.40;99.90
37844;DHT22;63793;57.632;18.292;2023-02-01T05:58:42;2.30;99.90
37844;DHT22;63793;57.632;18.292;2023-02-01T06:01:09;2.30;99.90
37844;DHT22;63793;57.632;18.292;2023-02-01T06:03:36;2.20;99.90
37844;DHT22;63793;57.632;18.292;2023-02-01T06:06:03;2.20;99.90
37844;DHT22;63793;57.632;18.292;2023-02-01T06:08:30;2.10;99.90
37844;DHT22;63793;57.632;18.292;2023-02-01T06:11:02;2.10;99.90
37844;DHT22;63793;57.632;18.292;2023-02-01T06:13:29;2.00;99.90
37844;DHT22;63793;57.632;18.292;2023-02-01T06:16:00;2.00;99.90
37844;DHT22;63793;57.632;18.292;2023-02-01T06:18:27;1.90;99.90
37844;DHT22;63793;57.632;18.292;2023-02-01T06:20:55;1.90;99.90
37844;DHT22;63793;57.632;18.292;2023-02-01T06:23:22;1.90;99.90
37844;DHT22;63793;57.632;18.292;2023-02-01T06:25:51;1.90;99.90
37844;DHT22;63793;57.632;18.292;2023-02-01T06:28:18;1.90;99.90
37844;DHT22;63793;57.632;18.292;2023-02-01T06:30:45;1.90;99.90
37844;DHT22;63793;57.632;18.292;2023-02-01T06:33:14;1.90;99.90
37844;DHT22;63793;57.632;18.292;2023-02-01T06:35:43;1.90;99.90
37844;DHT22;63793;57.632;18.292;2023-02-01T06:38:11;1.90;99.90
37844;DHT22;63793;57.632;18.292;2023-02-01T06:40:38;2.00;99.90
37844;DHT22;63793;57.632;18.292;2023-02-01T06:43:05;2.00;99.90
37844;DHT22;63793;57.632;18.292;2023-02-01T06:45:32;2.00;99.90
37844;DHT22;63793;57.632;18.292;2023-02-01T06:47:59;2.00;99.90
37844;DHT22;63793;57.632;18.292;2023-02-01T06:50:29;2.10;99.90
37844;DHT22;63793;57.632;18.292;2023-02-01T06:52:56;2.20;99.90
37844;DHT22;63793;57.632;18.292;2023-02-01T06:55:23;2.20;99.90
37844;DHT22;63793;57.632;18.292;2023-02-01T06:57:53;2.20;99.90
37844;DHT22;63793;57.632;18.292;2023-02-01T07:00:22;2.20;99.90
37844;DHT22;63793;57.632;18.292;2023-02-01T07:02:50;2.20;99.90
37844;DHT22;63793;57.632;18.292;2023-02-01T07:05:17;2.20;99.90
37844;DHT22;63793;57.632;18.292;2023-02-01T07:07:44;2.20;99.90
37844;DHT22;63793;57.632;18.292;2023-02-01T07:10:11;2.20;99.90
37844;DHT22;63793;57.632;18.292;2023-02-01T07:12:38;2.20;99.90
37844;DHT22;63793;57.632;18.292;2023-02-01T07:15:06;2.30;99.90
37844;DHT22;63793;57.632;18.292;2023-02-01T07:17:33;2.30;99.90
37844;DHT22;63793;57.632;18.292;2023-02-01T07:20:00;2.30;99.90
37844;DHT22;63793;57.632;18.292;2023-02-01T07:22:28;2.30;99.90
37844;DHT22;63793;57.632;18.292;2023-02-01T07:24:55;2.30;99.90
37844;DHT22;63793;57.632;18.292;2023-02-01T07:27:22;2.30;99.90
37844;DHT22;63793;57.632;18.292;2023-02-01T07:29:51;2.30;99.90
37844;DHT22;63793;57.632;18.292;2023-02-01T07:32:19;2.30;99.90
37844;DHT22;63793;57.632;18.292;2023-02-01T07:34:46;2.30;99.90
37844;DHT22;63793;57.632;18.292;2023-02-01T07:37:12;2.40;99.90
37844;DHT22;63793;57.632;18.292;2023-02-01T07:39:39;2.40;99.90
37844;DHT22;63793;57.632;18.292;2023-02-01T07:42:06;2.40;99.90
37844;DHT22;63793;57.632;18.292;2023-02-01T07:44:33;2.40;99.90
37844;DHT22;63793;57.632;18.292;2023-02-01T07:47:00;2.40;99.90
37844;DHT22;63793;57.632;18.292;2023-02-01T07:49:27;2.40;99.90
37844;DHT22;63793;57.632;18.292;2023-02-01T07:51:54;2.40;99.90
37844;DHT22;63793;57.632;18.292;2023-02-01T07:54:21;2.30;99.90
37844;DHT22;63793;57.632;18.292;2023-02-01T07:56:48;2.40;99.90
37844;DHT22;63793;57.632;18.292;2023-02-01T07:59:15;2.40;99.90
37844;DHT22;63793;57.632;18.292;2023-02-01T08:01:42;2.30;99.90
37844;DHT22;63793;57.632;18.292;2023-02-01T08:04:11;2.30;99.90
37844;DHT22;63793;57.632;18.292;2023-02-01T08:06:39;2.40;99.90
37844;DHT22;63793;57.632;18.292;2023-02-01T08:09:07;2.40;99.90
37844;DHT22;63793;57.632;18.292;2023-02-01T08:11:34;2.40;99.90
37844;DHT22;63793;57.632;18.292;2023-02-01T08:14:04;2.40;99.90
37844;DHT22;63793;57.632;18.292;2023-02-01T08:16:31;2.40;99.90
37844;DHT22;63793;57.632;18.292;2023-02-01T08:19:00;2.40;99.90
37844;DHT22;63793;57.632;18.292;2023-02-01T08:21:28;2.40;99.90
37844;DHT22;63793;57.632;18.292;2023-02-01T08:24:05;2.40;99.90
37844;DHT22;63793;57.632;18.292;2023-02-01T08:26:32;2.50;99.90
37844;DHT22;63793;57.632;18.292;2023-02-01T08:29:01;2.50;99.90
37844;DHT22;63793;57.632;18.292;2023-02-01T08:31:30;2.50;99.90
37844;DHT22;63793;57.632;18.292;2023-02-01T08:33:59;2.50;99.90
37844;DHT22;63793;57.632;18.292;2023-02-01T08:36:28;2.60;99.90
37844;DHT22;63793;57.632;18.292;2023-02-01T08:38:56;2.60;99.90
37844;DHT22;63793;57.632;18.292;2023-02-01T08:41:26;2.60;99.90
37844;DHT22;63793;57.632;18.292;2023-02-01T08:43:53;2.60;99.90
37844;DHT22;63793;57.632;18.292;2023-02-01T08:46:22;2.70;99.90
37844;DHT22;63793;57.632;18.292;2023-02-01T08:48:51;2.70;99.90
37844;DHT22;63793;57.632;18.292;2023-02-01T08:51:20;2.70;99.90
37844;DHT22;63793;57.632;18.292;2023-02-01T08:53:48;2.70;99.90
37844;DHT22;63793;57.632;18.292;2023-02-01T08:56:16;2.80;99.90
37844;DHT22;63793;57.632;18.292;2023-02-01T08:58:44;2.80;99.90
37844;DHT22;63793;57.632;18.292;2023-02-01T09:01:14;2.80;99.90
37844;DHT22;63793;57.632;18.292;2023-02-01T09:03:42;2.90;99.90
37844;DHT22;63793;57.632;18.292;2023-02-01T09:06:11;3.00;99.90
37844;DHT22;63793;57.632;18.292;2023-02-01T09:08:40;3.00;99.90
37844;DHT22;63793;57.632;18.292;2023-02-01T09:11:11;3.10;99.90
37844;DHT22;63793;57.632;18.292;2023-02-01T09:13:38;3.10;99.90
37844;DHT22;63793;57.632;18.292;2023-02-01T09:16:06;3.10;99.90
37844;DHT22;63793;57.632;18.292;2023-02-01T09:18:33;3.10;99.90
37844;DHT22;63793;57.632;18.292;2023-02-01T09:21:04;3.10;99.90
37844;DHT22;63793;57.632;18.292;2023-02-01T09:23:31;3.10;99.90
37844;DHT22;63793;57.632;18.292;2023-02-01T09:26:03;3.10;99.90
37844;DHT22;63793;57.632;18.292;2023-02-01T09:28:31;3.20;99.90
37844;DHT22;63793;57.632;18.292;2023-02-01T09:30:59;3.20;99.90
37844;DHT22;63793;57.632;18.292;2023-02-01T09:33:27;3.10;99.90
37844;DHT22;63793;57.632;18.292;2023-02-01T09:35:58;3.20;99.90
37844;DHT22;63793;57.632;18.292;2023-02-01T09:38:25;3.20;99.90
37844;DHT22;63793;57.632;18.292;2023-02-01T09:40:54;3.20;99.90
37844;DHT22;63793;57.632;18.292;2023-02-01T09:43:41;3.30;99.90
37844;DHT22;63793;57.632;18.292;2023-02-01T09:46:29;3.30;99.90
37844;DHT22;63793;57.632;18.292;2023-02-01T09:49:00;3.30;99.90
37844;DHT22;63793;57.632;18.292;2023-02-01T09:51:33;3.30;99.90
37844;DHT22;63793;57.632;18.292;2023-02-01T09:54:20;3.30;99.90
37844;DHT22;63793;57.632;18.292;2023-02-01T09:57:10;3.40;99.90
37844;DHT22;63793;57.632;18.292;2023-02-01T09:59:42;3.40;99.90
37844;DHT22;63793;57.632;18.292;2023-02-01T10:02:25;3.40;99.90
37844;DHT22;63793;57.632;18.292;2023-02-01T10:04:56;3.40;99.90
37844;DHT22;63793;57.632;18.292;2023-02-01T10:13:43;3.40;99.90
37844;DHT22;63793;57.632;18.292;2023-02-01T10:21:19;3.50;99.90
37844;DHT22;63793;57.632;18.292;2023-02-01T10:26:47;3.60;99.90
37844;DHT22;63793;57.632;18.292;2023-02-01T10:29:19;3.60;99.90
37844;DHT22;63793;57.632;18.292;2023-02-01T10:31:47;3.70;99.90
37844;DHT22;63793;57.632;18.292;2023-02-01T10:34:19;3.70;99.90
37844;DHT22;63793;57.632;18.292;2023-02-01T10:36:50;3.80;99.90
37844;DHT22;63793;57.632;18.292;2023-02-01T10:39:19;3.80;99.90
37844;DHT22;63793;57.632;18.292;2023-02-01T10:41:46;3.80;99.90
37844;DHT22;63793;57.632;18.292;2023-02-01T10:44:24;3.80;99.90
37844;DHT22;63793;57.632;18.292;2023-02-01T10:46:51;3.90;99.90
37844;DHT22;63793;57.632;18.292;2023-02-01T10:49:25;3.90;99.90
37844;DHT22;63793;57.632;18.292;2023-02-01T10:52:16;3.90;99.90
37844;DHT22;63793;57.632;18.292;2023-02-01T10:54:43;3.90;99.90
37844;DHT22;63793;57.632;18.292;2023-02-01T10:57:24;3.80;99.90
37844;DHT22;63793;57.632;18.292;2023-02-01T10:59:53;3.80;99.90
37844;DHT22;63793;57.632;18.292;2023-02-01T11:02:34;3.80;99.90
37844;DHT22;63793;57.632;18.292;2023-02-01T11:05:09;3.80;99.90
37844;DHT22;63793;57.632;18.292;2023-02-01T11:07:37;3.70;99.90
37844;DHT22;63793;57.632;18.292;2023-02-01T11:10:06;3.70;99.90
37844;DHT22;63793;57.632;18.292;2023-02-01T11:12:36;3.80;99.90
37844;DHT22;63793;57.632;18.292;2023-02-01T11:15:23;3.80;99.90
37844;DHT22;63793;57.632;18.292;2023-02-01T11:17:52;3.80;99.90
37844;DHT22;63793;57.632;18.292;2023-02-01T11:20:37;3.90;99.90
37844;DHT22;63793;57.632;18.292;2023-02-01T11:23:16;3.90;99.90
37844;DHT22;63793;57.632;18.292;2023-02-01T11:26:01;3.90;99.90
37844;DHT22;63793;57.632;18.292;2023-02-01T11:28:32;3.90;99.90
37844;DHT22;63793;57.632;18.292;2023-02-01T11:31:03;3.80;99.90
37844;DHT22;63793;57.632;18.292;2023-02-01T11:33:33;3.80;99.90
37844;DHT22;63793;57.632;18.292;2023-02-01T11:36:19;3.80;99.90
37844;DHT22;63793;57.632;18.292;2023-02-01T11:41:44;3.90;99.90
37844;DHT22;63793;57.632;18.292;2023-02-01T11:44:39;3.90;99.90
37844;DHT22;63793;57.632;18.292;2023-02-01T11:49:47;4.00;99.90
37844;DHT22;63793;57.632;18.292;2023-02-01T11:53:00;4.00;99.90
37844;DHT22;63793;57.632;18.292;2023-02-01T12:11:22;3.80;99.90
37844;DHT22;63793;57.632;18.292;2023-02-01T12:14:21;3.80;99.90
37844;DHT22;63793;57.632;18.292;2023-02-01T12:25:19;3.70;99.90
37844;DHT22;63793;57.632;18.292;2023-02-01T12:33:49;3.70;99.90
37844;DHT22;63793;57.632;18.292;2023-02-01T12:36:21;3.60;99.90
37844;DHT22;63793;57.632;18.292;2023-02-01T12:44:47;3.60;99.90
37844;DHT22;63793;57.632;18.292;2023-02-01T12:47:28;3.60;99.90
37844;DHT22;63793;57.632;18.292;2023-02-01T12:50:08;3.50;99.90
37844;DHT22;63793;57.632;18.292;2023-02-01T12:52:48;3.40;99.90
37844;DHT22;63793;57.632;18.292;2023-02-01T12:55:24;3.40;99.90
37844;DHT22;63793;57.632;18.292;2023-02-01T12:57:57;3.40;99.90
37844;DHT22;63793;57.632;18.292;2023-02-01T13:00:30;3.40;99.90
37844;DHT22;63793;57.632;18.292;2023-02-01T13:06:03;3.40;99.90
37844;DHT22;63793;57.632;18.292;2023-02-01T13:11:39;3.50;99.90
37844;DHT22;63793;57.632;18.292;2023-02-01T13:16:48;3.60;99.90
37844;DHT22;63793;57.632;18.292;2023-02-01T13:19:32;3.60;99.90
37844;DHT22;63793;57.632;18.292;2023-02-01T13:25:02;3.70;99.90
37844;DHT22;63793;57.632;18.292;2023-02-01T13:27:30;3.70;99.90
37844;DHT22;63793;57.632;18.292;2023-02-01T13:32:57;3.70;99.90
37844;DHT22;63793;57.632;18.292;2023-02-01T13:41:35;3.80;99.90
37844;DHT22;63793;57.632;18.292;2023-02-01T13:44:12;3.80;99.90
37844;DHT22;63793;57.632;18.292;2023-02-01T13:46:44;3.80;99.90
37844;DHT22;63793;57.632;18.292;2023-02-01T13:49:27;3.80;99.90
37844;DHT22;63793;57.632;18.292;2023-02-01T13:51:57;3.80;99.90
37844;DHT22;63793;57.632;18.292;2023-02-01T13:54:37;3.80;99.90
37844;DHT22;63793;57.632;18.292;2023-02-01T13:57:06;3.80;99.90
37844;DHT22;63793;57.632;18.292;2023-02-01T14:05:10;3.80;99.90
37844;DHT22;63793;57.632;18.292;2023-02-01T14:08:41;3.80;99.90
37844;DHT22;63793;57.632;18.292;2023-02-01T14:10:57;3.70;99.90
37844;DHT22;63793;57.632;18.292;2023-02-01T14:13:30;3.70;99.90
37844;DHT22;63793;57.632;18.292;2023-02-01T14:21:19;3.60;99.90
37844;DHT22;63793;57.632;18.292;2023-02-01T14:34:53;3.60;99.90
37844;DHT22;63793;57.632;18.292;2023-02-01T14:37:32;3.60;99.90
37844;DHT22;63793;57.632;18.292;2023-02-01T14:40:01;3.50;99.90
37844;DHT22;63793;57.632;18.292;2023-02-01T15:01:18;3.50;99.90
37844;DHT22;63793;57.632;18.292;2023-02-01T15:04:26;3.50;99.90
37844;DHT22;63793;57.632;18.292;2023-02-01T15:06:55;3.50;99.90
37844;DHT22;63793;57.632;18.292;2023-02-01T15:09:25;3.50;99.90
37844;DHT22;63793;57.632;18.292;2023-02-01T15:12:02;3.50;99.90
37844;DHT22;63793;57.632;18.292;2023-02-01T15:14:40;3.40;99.90
37844;DHT22;63793;57.632;18.292;2023-02-01T15:17:26;3.40;99.90
37844;DHT22;63793;57.632;18.292;2023-02-01T15:20:12;3.40;99.90
37844;DHT22;63793;57.632;18.292;2023-02-01T15:22:39;3.40;99.90
37844;DHT22;63793;57.632;18.292;2023-02-01T15:25:37;3.40;99.90
37844;DHT22;63793;57.632;18.292;2023-02-01T15:28:09;3.30;99.90
37844;DHT22;63793;57.632;18.292;2023-02-01T15:30:39;3.40;99.90
37844;DHT22;63793;57.632;18.292;2023-02-01T15:35:43;3.40;99.90
37844;DHT22;63793;57.632;18.292;2023-02-01T15:46:33;3.50;99.90
37844;DHT22;63793;57.632;18.292;2023-02-01T15:49:02;3.50;99.90
37844;DHT22;63793;57.632;18.292;2023-02-01T15:51:31;3.40;99.90
37844;DHT22;63793;57.632;18.292;2023-02-01T15:54:05;3.40;99.90
37844;DHT22;63793;57.632;18.292;2023-02-01T15:56:36;3.30;99.90
37844;DHT22;63793;57.632;18.292;2023-02-01T15:59:12;3.30;99.90
37844;DHT22;63793;57.632;18.292;2023-02-01T16:01:41;3.30;99.90
37844;DHT22;63793;57.632;18.292;2023-02-01T16:04:16;3.30;99.90
37844;DHT22;63793;57.632;18.292;2023-02-01T16:06:54;3.20;99.90
37844;DHT22;63793;57.632;18.292;2023-02-01T16:09:25;3.20;99.90
37844;DHT22;63793;57.632;18.292;2023-02-01T16:12:03;3.10;99.90
37844;DHT22;63793;57.632;18.292;2023-02-01T16:14:30;3.00;99.90
37844;DHT22;63793;57.632;18.292;2023-02-01T16:16:58;2.90;99.90
37844;DHT22;63793;57.632;18.292;2023-02-01T16:19:25;2.80;99.90
37844;DHT22;63793;57.632;18.292;2023-02-01T16:21:55;2.60;99.90
37844;DHT22;63793;57.632;18.292;2023-02-01T16:24:22;2.50;99.90
37844;DHT22;63793;57.632;18.292;2023-02-01T16:26:52;2.40;99.90
37844;DHT22;63793;57.632;18.292;2023-02-01T16:29:19;2.30;99.90
37844;DHT22;63793;57.632;18.292;2023-02-01T16:31:48;2.30;99.90
37844;DHT22;63793;57.632;18.292;2023-02-01T16:34:16;2.30;99.90
37844;DHT22;63793;57.632;18.292;2023-02-01T16:36:47;2.30;99.90
37844;DHT22;63793;57.632;18.292;2023-02-01T16:39:22;2.30;99.90
37844;DHT22;63793;57.632;18.292;2023-02-01T16:41:49;2.30;99.90
37844;DHT22;63793;57.632;18.292;2023-02-01T16:44:16;2.20;99.90
37844;DHT22;63793;57.632;18.292;2023-02-01T16:46:46;2.30;99.90
37844;DHT22;63793;57.632;18.292;2023-02-01T16:49:20;2.20;99.90
37844;DHT22;63793;57.632;18.292;2023-02-01T16:51:49;2.20;99.90
37844;DHT22;63793;57.632;18.292;2023-02-01T16:54:17;2.20;99.90
37844;DHT22;63793;57.632;18.292;2023-02-01T16:56:44;2.20;99.90
37844;DHT22;63793;57.632;18.292;2023-02-01T16:59:12;2.10;99.90
37844;DHT22;63793;57.632;18.292;2023-02-01T17:01:39;2.10;99.90
37844;DHT22;63793;57.632;18.292;2023-02-01T17:04:09;2.10;99.90
37844;DHT22;63793;57.632;18.292;2023-02-01T17:06:37;2.10;99.90
37844;DHT22;63793;57.632;18.292;2023-02-01T17:09:05;2.10;99.90
37844;DHT22;63793;57.632;18.292;2023-02-01T17:11:32;2.00;99.90
37844;DHT22;63793;57.632;18.292;2023-02-01T17:16:41;2.00;99.90
37844;DHT22;63793;57.632;18.292;2023-02-01T17:19:20;2.00;99.90
37844;DHT22;63793;57.632;18.292;2023-02-01T17:21:53;1.90;99.90
37844;DHT22;63793;57.632;18.292;2023-02-01T17:24:24;1.90;99.90
37844;DHT22;63793;57.632;18.292;2023-02-01T17:26:54;1.90;99.90
37844;DHT22;63793;57.632;18.292;2023-02-01T17:29:21;1.90;99.90
37844;DHT22;63793;57.632;18.292;2023-02-01T17:31:54;1.90;99.90
37844;DHT22;63793;57.632;18.292;2023-02-01T17:34:21;1.90;99.90
37844;DHT22;63793;57.632;18.292;2023-02-01T17:36:48;1.90;99.90
37844;DHT22;63793;57.632;18.292;2023-02-01T17:39:16;1.90;99.90
37844;DHT22;63793;57.632;18.292;2023-02-01T17:42:03;1.90;99.90
37844;DHT22;63793;57.632;18.292;2023-02-01T17:44:30;1.90;99.90
37844;DHT22;63793;57.632;18.292;2023-02-01T17:46:57;1.80;99.90
37844;DHT22;63793;57.632;18.292;2023-02-01T17:49:25;1.80;99.90
37844;DHT22;63793;57.632;18.292;2023-02-01T17:51:55;1.80;99.90
37844;DHT22;63793;57.632;18.292;2023-02-01T17:54:23;1.80;99.90
37844;DHT22;63793;57.632;18.292;2023-02-01T17:56:51;1.80;99.90
37844;DHT22;63793;57.632;18.292;2023-02-01T17:59:18;1.90;99.90
37844;DHT22;63793;57.632;18.292;2023-02-01T18:01:45;1.80;99.90
37844;DHT22;63793;57.632;18.292;2023-02-01T18:04:16;1.80;99.90
37844;DHT22;63793;57.632;18.292;2023-02-01T18:06:44;1.80;99.90
37844;DHT22;63793;57.632;18.292;2023-02-01T18:09:12;1.80;99.90
37844;DHT22;63793;57.632;18.292;2023-02-01T18:11:39;1.80;99.90
37844;DHT22;63793;57.632;18.292;2023-02-01T18:14:10;1.80;99.90
37844;DHT22;63793;57.632;18.292;2023-02-01T18:16:37;1.80;99.90
37844;DHT22;63793;57.632;18.292;2023-02-01T18:19:04;1.80;99.90
37844;DHT22;63793;57.632;18.292;2023-02-01T18:21:34;1.80;99.90
37844;DHT22;63793;57.632;18.292;2023-02-01T18:24:02;1.80;99.90
37844;DHT22;63793;57.632;18.292;2023-02-01T18:26:29;1.80;99.90
37844;DHT22;63793;57.632;18.292;2023-02-01T18:28:56;1.80;99.90
37844;DHT22;63793;57.632;18.292;2023-02-01T18:31:28;1.80;99.90
37844;DHT22;63793;57.632;18.292;2023-02-01T18:33:57;1.80;99.90
37844;DHT22;63793;57.632;18.292;2023-02-01T18:36:25;1.80;99.90
37844;DHT22;63793;57.632;18.292;2023-02-01T18:38:52;1.80;99.90
37844;DHT22;63793;57.632;18.292;2023-02-01T18:41:22;1.80;99.90
37844;DHT22;63793;57.632;18.292;2023-02-01T18:43:50;1.80;99.90